Time;durP1;ratioP1;P1;durP2;ratioP2;P2;SDS_P1;SDS_P2;PMS_P1;PMS_P2;Temp;Humidity;BMP_temperature;BMP_pressure;BME280_temperature;BME280_humidity;BME280_pressure;Samples;Min_cycle;Max_cycle;Signal;HPM_P1;HPM_P2
2023/03/07 00:00:58;;;;;;;15.88;7.35;;;;;;;10.94;100.00;99681.34;4986063;28;20043;-54
2023/03/07 00:03:24;;;;;;;16.73;6.57;;;;;;;10.56;100.00;99685.94;4987014;28;20030;-51
2023/03/07 00:06:03;;;;;;;18.63;6.10;;;;;;;10.64;100.00;99682.16;4991762;28;20043;-54
2023/03/07 00:08:29;;;;;;;15.73;7.45;;;;;;;11.14;100.00;99681.06;4986446;28;20041;-49
2023/03/07 00:10:58;;;;;;;15.60;6.72;;;;;;;10.99;100.00;99678.81;4990872;28;20095;-54
2023/03/07 00:13:24;;;;;;;18.70;6.55;;;;;;;10.57;100.00;99676.88;4986094;28;20054;-53
2023/03/07 00:15:49;;;;;;;12.85;6.97;;;;;;;10.90;100.00;99690.88;4989036;28;20046;-51
2023/03/07 00:18:15;;;;;;;20.97;7.27;;;;;;;10.82;100.00;99670.59;4984942;28;20098;-52
2023/03/07 00:20:41;;;;;;;17.30;6.32;;;;;;;10.68;100.00;99677.97;4985897;28;20457;-53
2023/03/07 00:23:06;;;;;;;20.37;7.73;;;;;;;10.66;100.00;99677.41;4978971;28;20031;-53
2023/03/07 00:25:31;;;;;;;21.57;7.53;;;;;;;10.60;100.00;99675.59;4987144;28;20035;-53
2023/03/07 00:27:57;;;;;;;21.77;8.33;;;;;;;10.46;100.00;99670.41;4988689;28;20031;-54
2023/03/07 00:30:23;;;;;;;25.15;8.10;;;;;;;10.76;100.00;99669.63;4996430;28;20035;-53
2023/03/07 00:32:48;;;;;;;15.97;7.67;;;;;;;10.73;100.00;99664.75;5014904;28;20055;-50
2023/03/07 00:35:13;;;;;;;22.93;7.83;;;;;;;10.58;100.00;99669.66;5044155;28;20056;-53
2023/03/07 00:37:39;;;;;;;15.23;7.13;;;;;;;10.85;100.00;99666.69;5054320;28;20040;-53
2023/03/07 00:40:06;;;;;;;27.20;8.73;;;;;;;10.88;100.00;99684.94;5045890;28;20042;-53
2023/03/07 00:42:32;;;;;;;18.15;7.70;;;;;;;10.70;100.00;99675.91;5055536;28;20041;-55
2023/03/07 00:44:57;;;;;;;15.53;7.37;;;;;;;10.90;100.00;99674.84;5051656;28;20057;-51
2023/03/07 00:47:22;;;;;;;15.37;6.90;;;;;;;10.66;100.00;99674.72;5054335;28;20040;-54
2023/03/07 00:49:48;;;;;;;18.63;7.93;;;;;;;10.97;100.00;99667.53;5052027;28;20030;-54
2023/03/07 00:52:14;;;;;;;21.80;7.38;;;;;;;11.15;100.00;99676.56;5048481;28;20041;-52
2023/03/07 00:54:39;;;;;;;21.10;7.13;;;;;;;11.23;100.00;99664.72;5050338;28;20045;-53
2023/03/07 00:57:05;;;;;;;16.30;6.33;;;;;;;10.56;100.00;99651.19;5055824;28;20052;-52
2023/03/07 00:59:30;;;;;;;14.83;6.10;;;;;;;10.88;100.00;99663.53;5048823;28;20033;-51
2023/03/07 01:01:56;;;;;;;14.43;5.60;;;;;;;11.04;100.00;99652.19;5045062;28;20032;-55
2023/03/07 01:04:21;;;;;;;18.40;5.30;;;;;;;11.14;100.00;99662.34;5041930;28;20029;-53
2023/03/07 01:06:47;;;;;;;10.33;5.07;;;;;;;11.04;100.00;99657.53;5045585;28;20299;-56
2023/03/07 01:09:12;;;;;;;9.60;5.30;;;;;;;10.83;100.00;99652.69;5040598;28;20048;-50
2023/03/07 01:11:37;;;;;;;10.70;4.40;;;;;;;10.89;100.00;99647.25;5038909;28;20041;-54
2023/03/07 01:14:05;;;;;;;10.38;4.95;;;;;;;11.08;100.00;99649.09;5042568;28;20036;-48
2023/03/07 01:16:36;;;;;;;15.80;5.85;;;;;;;10.92;100.00;99651.34;5046121;28;20033;-52
2023/03/07 01:19:04;;;;;;;14.63;6.03;;;;;;;10.55;100.00;99646.88;5043647;28;20030;-51
2023/03/07 01:21:34;;;;;;;14.90;5.70;;;;;;;10.68;100.00;99645.91;5048348;28;20060;-51
2023/03/07 01:24:03;;;;;;;15.98;5.65;;;;;;;11.38;100.00;99650.91;5042218;28;20029;-49
2023/03/07 01:26:30;;;;;;;14.10;5.28;;;;;;;10.83;100.00;99639.31;5059827;28;20064;-56
2023/03/07 01:28:59;;;;;;;11.10;5.97;;;;;;;10.95;100.00;99634.00;5052847;28;20033;-51
2023/03/07 01:31:25;;;;;;;13.68;5.90;;;;;;;11.33;100.00;99636.34;5046827;28;20025;-47
2023/03/07 01:33:52;;;;;;;16.52;6.40;;;;;;;10.87;100.00;99632.50;5053311;28;20052;-52
2023/03/07 01:36:24;;;;;;;16.55;6.22;;;;;;;10.59;100.00;99625.84;5054360;28;20038;-50
2023/03/07 01:38:54;;;;;;;15.32;5.88;;;;;;;10.44;100.00;99634.25;5050278;28;20044;-51
2023/03/07 01:41:20;;;;;;;15.23;6.90;;;;;;;10.37;100.00;99620.94;5048780;28;20026;-51
2023/03/07 01:43:48;;;;;;;20.23;6.90;;;;;;;10.75;100.00;99630.56;5054450;28;20126;-52
2023/03/07 01:46:17;;;;;;;18.17;6.97;;;;;;;11.16;100.00;99617.44;5054239;28;20029;-51
2023/03/07 01:48:46;;;;;;;18.85;7.78;;;;;;;10.53;100.00;99621.41;5053519;28;20037;-52
2023/03/07 01:51:12;;;;;;;15.85;7.00;;;;;;;10.99;100.00;99619.16;5049584;28;20876;-49
2023/03/07 01:53:37;;;;;;;19.35;8.20;;;;;;;10.54;100.00;99617.69;5055466;28;20061;-52
2023/03/07 01:56:05;;;;;;;17.77;8.60;;;;;;;10.92;100.00;99619.25;5044741;28;20030;-52
2023/03/07 01:58:32;;;;;;;18.00;7.88;;;;;;;10.58;100.00;99616.19;5042226;28;20038;-53
2023/03/07 02:00:58;;;;;;;16.25;7.82;;;;;;;10.99;100.00;99611.13;5048826;28;20030;-55
2023/03/07 02:03:33;;;;;;;25.05;8.63;;;;;;;10.30;100.00;99605.00;5044974;28;20058;-53
2023/03/07 02:06:04;;;;;;;17.73;8.02;;;;;;;10.59;100.00;99605.28;5047218;28;20036;-50
2023/03/07 02:08:34;;;;;;;21.15;7.53;;;;;;;10.58;100.00;99603.66;5053483;28;20033;-55
2023/03/07 02:11:00;;;;;;;19.40;7.20;;;;;;;10.92;100.00;99597.84;5052256;28;20037;-53
2023/03/07 02:13:26;;;;;;;17.83;6.85;;;;;;;10.54;100.00;99602.47;5044656;28;20121;-51
2023/03/07 02:15:51;;;;;;;15.67;7.20;;;;;;;10.80;100.00;99592.47;5051101;28;20038;-50
2023/03/07 02:18:23;;;;;;;20.08;7.97;;;;;;;10.92;100.00;99589.00;5045457;28;20045;-53
2023/03/07 02:21:21;;;;;;;21.70;8.68;;;;;;;11.11;100.00;99593.22;5051141;28;20040;-53
2023/03/07 02:24:05;;;;;;;20.02;9.48;;;;;;;11.03;100.00;99585.56;5045316;28;20033;-51
2023/03/07 02:26:31;;;;;;;24.95;10.98;;;;;;;10.78;100.00;99586.53;5046997;28;20037;-52
2023/03/07 02:28:59;;;;;;;30.50;11.85;;;;;;;10.99;100.00;99581.69;5045688;28;20037;-50
2023/03/07 02:31:26;;;;;;;31.77;12.30;;;;;;;11.13;100.00;99580.44;5043571;28;20069;-47
2023/03/07 02:33:52;;;;;;;;;;;;;;;11.32;100.00;99583.88;5050823;28;20041;-50
2023/03/07 02:36:29;;;;;;;33.53;13.00;;;;;;;10.84;100.00;99582.94;4991313;28;19922;-51
2023/03/07 02:39:05;;;;;;;30.23;12.32;;;;;;;10.84;100.00;99580.25;4967903;28;20027;-50
2023/03/07 02:41:33;;;;;;;29.60;14.18;;;;;;;11.04;100.00;99574.59;4985514;28;20046;-51
2023/03/07 02:44:04;;;;;;;28.00;12.55;;;;;;;11.24;100.00;99562.78;4971111;28;20113;-52
2023/03/07 02:46:30;;;;;;;30.70;14.07;;;;;;;10.97;100.00;99567.75;4981277;28;20051;-48
2023/03/07 02:48:56;;;;;;;34.70;12.57;;;;;;;11.05;100.00;99570.09;4997139;28;20039;-51
2023/03/07 02:51:22;;;;;;;29.33;11.88;;;;;;;11.50;100.00;99573.28;4994660;28;20046;-52
2023/03/07 02:53:47;;;;;;;24.67;12.13;;;;;;;10.81;100.00;99566.53;4987504;28;20058;-49
2023/03/07 02:56:13;;;;;;;25.30;10.73;;;;;;;11.24;100.00;99565.44;4992432;28;20087;-51
2023/03/07 02:58:39;;;;;;;22.40;10.77;;;;;;;11.59;100.00;99558.47;4986989;28;20057;-55
2023/03/07 03:01:04;;;;;;;19.20;10.73;;;;;;;11.12;100.00;99554.72;4996240;28;20564;-52
2023/03/07 03:03:30;;;;;;;18.55;9.57;;;;;;;11.24;100.00;99568.13;4985085;28;20047;-49
2023/03/07 03:05:56;;;;;;;24.60;11.07;;;;;;;11.87;100.00;99557.75;4987804;28;20043;-50
2023/03/07 03:08:22;;;;;;;27.80;11.93;;;;;;;11.02;100.00;99563.31;4985684;28;20034;-49
2023/03/07 03:10:53;;;;;;;31.27;12.20;;;;;;;10.79;100.00;99555.25;4986739;28;20042;-51
2023/03/07 03:13:21;;;;;;;29.33;13.90;;;;;;;11.23;100.00;99555.78;4981181;28;20041;-48
2023/03/07 03:15:47;;;;;;;30.17;13.32;;;;;;;11.16;100.00;99560.44;4988274;28;20039;-50
2023/03/07 03:18:13;;;;;;;30.67;15.65;;;;;;;11.73;100.00;99559.03;4992319;28;20038;-52
2023/03/07 03:20:41;;;;;;;29.98;14.30;;;;;;;11.32;100.00;99567.81;5013955;28;20038;-51
2023/03/07 03:23:06;;;;;;;30.17;14.93;;;;;;;11.42;100.00;99548.50;4985605;28;20802;-51
2023/03/07 03:25:33;;;;;;;30.90;14.85;;;;;;;11.00;100.00;99552.03;5013020;28;20064;-50
2023/03/07 03:27:59;;;;;;;32.92;15.50;;;;;;;11.67;100.00;99555.47;4977113;28;20054;-53
2023/03/07 03:30:31;;;;;;;30.75;14.75;;;;;;;11.28;100.00;99565.81;4972920;28;20061;-52
2023/03/07 03:32:57;;;;;;;36.83;14.85;;;;;;;11.34;100.00;99551.50;4983525;28;20042;-50
2023/03/07 03:35:23;;;;;;;32.10;14.13;;;;;;;11.96;100.00;99557.38;5026873;28;20053;-54
2023/03/07 03:37:48;;;;;;;30.30;13.90;;;;;;;11.73;100.00;99542.97;5047771;28;20038;-52
2023/03/07 03:40:16;;;;;;;42.88;14.70;;;;;;;11.26;100.00;99557.19;5049144;28;20094;-54
2023/03/07 03:42:43;;;;;;;22.17;9.90;;;;;;;10.89;100.00;99568.88;5047737;28;20413;-55
2023/03/07 03:45:11;;;;;;;27.05;9.13;;;;;;;10.49;100.00;99567.56;5044064;28;20093;-51
2023/03/07 03:47:37;;;;;;;;;;;;;;;10.81;100.00;99564.69;5055488;28;20046;-52
2023/03/07 03:50:04;;;;;;;16.67;7.32;;;;;;;10.80;100.00;99551.50;5054392;28;19960;-53
2023/03/07 03:52:29;;;;;;;19.25;6.88;;;;;;;10.23;100.00;99555.34;5054358;28;20054;-50
2023/03/07 03:54:55;;;;;;;16.13;6.18;;;;;;;10.33;100.00;99545.75;5048053;28;20029;-52
2023/03/07 03:57:21;;;;;;;22.17;7.82;;;;;;;10.37;100.00;99551.44;5051277;28;20030;-54
2023/03/07 03:59:47;;;;;;;23.70;8.17;;;;;;;10.43;100.00;99547.09;5058418;28;20040;-56
2023/03/07 04:02:14;;;;;;;17.65;7.85;;;;;;;10.97;100.00;99539.13;5047948;28;20029;-50
2023/03/07 04:04:40;;;;;;;21.80;7.78;;;;;;;10.83;100.00;99551.88;5055383;28;20070;-54
2023/03/07 04:07:05;;;;;;;26.57;8.63;;;;;;;10.58;100.00;99539.50;5058244;28;20033;-55
2023/03/07 04:09:32;;;;;;;25.13;8.93;;;;;;;10.68;100.00;99536.28;5049459;28;20044;-52
2023/03/07 04:11:58;;;;;;;29.97;11.33;;;;;;;10.95;100.00;99533.19;5045441;28;20084;-51
2023/03/07 04:14:23;;;;;;;31.23;10.77;;;;;;;10.89;100.00;99531.44;5054364;28;20090;-55
2023/03/07 04:16:50;;;;;;;;;;;;;;;10.76;100.00;99524.44;5047201;28;20018;-53
2023/03/07 04:19:15;;;;;;;;;;;;;;;10.94;100.00;99520.03;5052925;28;19962;-53
2023/03/07 04:21:41;;;;;;;;;;;;;;;11.17;100.00;99514.72;5048654;28;19913;-54
2023/03/07 04:24:07;;;;;;;;;;;;;;;11.10;100.00;99519.38;5054954;28;19913;-55
2023/03/07 04:26:33;;;;;;;;;;;;;;;11.23;100.00;99512.97;5054166;28;19924;-56
2023/03/07 04:28:59;;;;;;;;;;;;;;;11.13;100.00;99512.75;5054724;28;19917;-52
2023/03/07 04:31:29;;;;;;;;;;;;;;;10.91;100.00;99513.31;5048383;28;19935;-53
2023/03/07 04:33:57;;;;;;;;;;;;;;;10.92;100.00;99511.44;5051876;28;19940;-54
2023/03/07 04:36:23;;;;;;;;;;;;;;;11.07;100.00;99505.63;4971438;28;20613;-52
2023/03/07 04:38:50;;;;;;;;;;;;;;;11.29;100.00;99512.03;4965799;28;19971;-56
2023/03/07 04:41:17;;;;;;;;;;;;;;;10.74;100.00;99505.94;4968303;28;19914;-54
2023/03/07 04:43:44;;;;;;;;;;;;;;;11.07;100.00;99503.78;4963208;28;19946;-55
2023/03/07 04:46:11;;;;;;;;;;;;;;;11.16;100.00;99504.25;4967203;28;19929;-53
2023/03/07 04:48:37;;;;;;;;;;;;;;;10.96;100.00;99499.25;4966417;28;19921;-56
2023/03/07 04:51:03;;;;;;;;;;;;;;;10.96;100.00;99497.38;4966437;28;19949;-56
2023/03/07 04:53:28;;;;;;;;;;;;;;;10.56;100.00;99493.47;4969682;28;19915;-56
2023/03/07 04:55:56;;;;;;;;;;;;;;;10.71;100.00;99493.03;4961965;28;19914;-51
2023/03/07 04:58:22;;;;;;;;;;;;;;;10.90;100.00;99479.56;4966465;28;19937;-53
2023/03/07 05:00:47;;;;;;;;;;;;;;;10.69;100.00;99483.59;4967897;28;19922;-53
2023/03/07 05:03:13;;;;;;;;;;;;;;;10.60;100.00;99483.94;4966739;28;19929;-55
2023/03/07 05:05:39;;;;;;;;;;;;;;;10.79;100.00;99483.03;4971314;28;19929;-52
2023/03/07 05:08:05;;;;;;;;;;;;;;;10.32;100.00;99487.19;4968731;28;19918;-51
2023/03/07 05:10:31;;;;;;;;;;;;;;;10.60;100.00;99485.78;4969810;28;19990;-55
2023/03/07 05:12:56;;;;;;;;;;;;;;;10.28;100.00;99481.50;4968038;28;19922;-51
2023/03/07 05:15:22;;;;;;;;;;;;;;;10.82;100.00;99486.06;4965506;28;19914;-56
2023/03/07 05:17:47;;;;;;;;;;;;;;;10.74;100.00;99484.53;4961058;28;19970;-54
2023/03/07 05:20:13;;;;;;;;;;;;;;;10.75;100.00;99477.34;4967086;28;19936;-53
2023/03/07 05:22:40;;;;;;;;;;;;;;;10.90;100.00;99485.72;4954394;28;19915;-51
2023/03/07 05:25:05;;;;;;;;;;;;;;;10.64;100.00;99478.97;4963489;28;19919;-49
2023/03/07 05:27:31;;;;;;;;;;;;;;;10.12;100.00;99485.59;4967024;28;19983;-53
2023/03/07 05:29:57;;;;;;;;;;;;;;;10.31;100.00;99482.88;4967676;28;19922;-50
2023/03/07 05:32:22;;;;;;;;;;;;;;;9.95;100.00;99487.28;4965279;28;19914;-52
2023/03/07 05:34:48;;;;;;;;;;;;;;;10.04;100.00;99483.25;4980352;28;19941;-54
2023/03/07 05:37:16;;;;;;;;;;;;;;;9.86;100.00;99486.75;5042706;28;19977;-52
2023/03/07 05:39:41;;;;;;;;;;;;;;;10.46;100.00;99485.16;5047004;28;19914;-53
2023/03/07 05:42:07;;;;;;;;;;;;;;;9.97;100.00;99490.53;5054710;28;19912;-52
2023/03/07 05:44:33;;;;;;;;;;;;;;;10.87;100.00;99498.75;5045442;28;19917;-51
2023/03/07 05:47:01;;;;;;;;;;;;;;;10.97;100.00;99500.88;5042518;28;19924;-50
2023/03/07 05:49:27;;;;;;;;;;;;;;;10.59;100.00;99497.53;5045950;28;19927;-47
2023/03/07 05:51:52;;;;;;;;;;;;;;;10.83;100.00;99497.56;5065993;28;19944;-50
2023/03/07 05:54:19;;;;;;;;;;;;;;;10.83;100.00;99493.06;5054221;28;19968;-48
2023/03/07 05:56:45;;;;;;;;;;;;;;;10.47;100.00;99490.28;5047262;28;20265;-53
2023/03/07 05:59:14;;;;;;;;;;;;;;;10.89;100.00;99488.66;5052939;28;19925;-50
2023/03/07 06:01:40;;;;;;;;;;;;;;;10.29;100.00;99488.47;5048096;28;20317;-53
2023/03/07 06:04:06;;;;;;;;;;;;;;;10.90;100.00;99487.59;5053159;28;19914;-51
2023/03/07 06:06:31;;;;;;;;;;;;;;;10.79;100.00;99497.22;5044586;28;19928;-49
2023/03/07 06:08:57;;;;;;;;;;;;;;;10.58;100.00;99488.69;5049665;28;19913;-53
2023/03/07 06:11:22;;;;;;;;;;;;;;;10.58;100.00;99501.22;5057152;28;19935;-53
2023/03/07 06:13:48;;;;;;;;;;;;;;;10.68;100.00;99496.16;5051940;28;19948;-53
2023/03/07 06:16:13;;;;;;;;;;;;;;;10.58;100.00;99501.22;5056062;28;19935;-52
2023/03/07 06:18:40;;;;;;;;;;;;;;;10.42;100.00;99503.53;5058813;28;19985;-54
2023/03/07 06:21:06;;;;;;;;;;;;;;;10.58;100.00;99504.75;5055980;28;19924;-51
2023/03/07 06:23:36;;;;;;;;;;;;;;;10.85;100.00;99506.22;5052923;28;19952;-51
2023/03/07 06:26:07;;;;;;;;;;;;;;;10.84;100.00;99509.91;5053682;28;19923;-54
2023/03/07 06:28:33;;;;;;;;;;;;;;;10.69;100.00;99508.50;5051675;28;19913;-49
2023/03/07 06:31:00;;;;;;;;;;;;;;;10.83;100.00;99513.63;5050719;28;19917;-50
2023/03/07 06:33:26;;;;;;;;;;;;;;;10.66;100.00;99514.28;5054980;28;19913;-52
2023/03/07 06:35:51;;;;;;;;;;;;;;;10.07;100.00;99516.72;5005887;28;19918;-52
2023/03/07 06:38:16;;;;;;;;;;;;;;;10.18;100.00;99516.78;4979013;28;19921;-51
2023/03/07 06:40:43;;;;;;;;;;;;;;;10.71;100.00;99521.59;4983295;28;19914;-50
2023/03/07 06:43:11;;;;;;;;;;;;;;;10.46;100.00;99523.41;4975680;28;20019;-51
2023/03/07 06:45:36;;;;;;;;;;;;;;;10.45;100.00;99529.81;4984537;28;19989;-50
2023/03/07 06:48:02;;;;;;;;;;;;;;;10.18;100.00;99535.47;4981877;28;19936;-50
2023/03/07 06:50:27;;;;;;;;;;;;;;;10.47;100.00;99530.38;4981160;28;19923;-53
2023/03/07 06:52:53;;;;;;;;;;;;;;;10.58;100.00;99530.63;4989824;28;20104;-49
2023/03/07 06:55:19;;;;;;;;;;;;;;;10.56;100.00;99530.06;4984383;28;19922;-50
2023/03/07 06:57:44;;;;;;;;;;;;;;;10.52;100.00;99540.41;4978407;28;19914;-53
2023/03/07 07:00:11;;;;;;;;;;;;;;;10.44;100.00;99538.03;4989128;28;19918;-50
2023/03/07 07:02:37;;;;;;;;;;;;;;;10.63;100.00;99536.16;4984043;28;19941;-53
2023/03/07 07:05:03;;;;;;;;;;;;;;;10.18;100.00;99535.47;4982466;28;19925;-54
2023/03/07 07:07:29;;;;;;;;;;;;;;;9.93;100.00;99535.56;4989411;28;19914;-51
2023/03/07 07:09:54;;;;;;;;;;;;;;;9.90;100.00;99533.34;4991849;28;19944;-50
2023/03/07 07:12:20;;;;;;;;;;;;;;;9.97;100.00;99527.91;4993949;28;19924;-48
2023/03/07 07:14:46;;;;;;;;;;;;;;;10.31;100.00;99533.66;4989534;28;19915;-51
2023/03/07 07:17:12;;;;;;;;;;;;;;;10.17;100.00;99531.16;4989777;28;19907;-50
2023/03/07 07:19:37;;;;;;;;;;;;;;;10.39;100.00;99535.19;4986061;28;19918;-53
2023/03/07 07:22:03;;;;;;;;;;;;;;;10.27;100.00;99535.16;4971663;28;19978;-52
2023/03/07 07:24:29;;;;;;;;;;;;;;;10.17;100.00;99544.53;4985284;28;19911;-50
2023/03/07 07:26:54;;;;;;;;;;;;;;;9.89;100.00;99539.72;4973371;28;19982;-54
2023/03/07 07:29:21;;;;;;;;;;;;;;;9.98;100.00;99538.38;4999449;28;19943;-49
2023/03/07 07:31:49;;;;;;;;;;;;;;;10.17;100.00;99539.19;4989616;28;19942;-52
2023/03/07 07:34:16;;;;;;;;;;;;;;;10.27;100.00;99543.16;4982502;28;19949;-53
2023/03/07 07:36:41;;;;;;;;;;;;;;;10.16;100.00;99539.41;4992854;28;19921;-52
2023/03/07 07:39:09;;;;;;;;;;;;;;;10.37;100.00;99546.09;4980221;28;19926;-51
2023/03/07 07:41:37;;;;;;;;;;;;;;;10.33;100.00;99547.59;4977395;28;19977;-50
2023/03/07 07:44:02;;;;;;;;;;;;;;;10.21;100.00;99550.22;5005876;28;19922;-50
2023/03/07 07:46:35;;;;;;;;;;;;;;;10.36;100.00;99552.50;4995276;28;19960;-53
2023/03/07 07:49:02;;;;;;;;;;;;;;;10.12;100.00;99563.06;4993215;28;19925;-53
2023/03/07 07:51:27;;;;;;;;;;;;;;;10.45;100.00;99561.03;4988108;28;19941;-50
2023/03/07 07:53:53;;;;;;;;;;;;;;;10.27;100.00;99562.69;5002167;28;19918;-52
2023/03/07 07:56:18;;;;;;;;;;;;;;;10.53;100.00;99570.63;4984718;28;19914;-54
2023/03/07 07:58:44;;;;;;;;;;;;;;;10.46;100.00;99566.19;4987283;28;19936;-51
2023/03/07 08:01:12;;;;;;;;;;;;;;;10.24;100.00;99565.78;4995524;28;19918;-50
2023/03/07 08:03:37;;;;;;;;;;;;;;;9.84;100.00;99572.41;4989485;28;20372;-51
2023/03/07 08:06:02;;;;;;;;;;;;;;;10.22;100.00;99577.75;4986200;28;19957;-51
2023/03/07 08:08:28;;;;;;;;;;;;;;;10.11;100.00;99572.13;4989117;28;19937;-49
2023/03/07 08:10:53;;;;;;;;;;;;;;;10.06;100.00;99577.31;4989303;28;19914;-51
2023/03/07 08:13:19;;;;;;;;;;;;;;;9.77;100.00;99579.69;4986767;28;19914;-52
2023/03/07 08:15:45;;;;;;;;;;;;;;;9.66;100.00;99580.41;4989313;28;19937;-54
2023/03/07 08:18:10;;;;;;;;;;;;;;;9.82;100.00;99584.38;4986775;28;19919;-53
2023/03/07 08:20:37;;;;;;;;;;;;;;;10.23;100.00;99582.88;4993150;28;19914;-51
2023/03/07 08:23:02;;;;;;;;;;;;;;;10.07;100.00;99588.84;4987907;28;19969;-53
2023/03/07 08:25:28;;;;;;;;;;;;;;;10.29;100.00;99584.66;4988475;28;19928;-52
2023/03/07 08:27:53;;;;;;;;;;;;;;;10.07;100.00;99583.50;4987037;28;19921;-49
2023/03/07 08:30:22;;;;;;;;;;;;;;;10.06;100.00;99588.00;4986475;28;19968;-51
2023/03/07 08:32:49;;;;;;;;;;;;;;;10.09;100.00;99586.75;4986995;28;19936;-50
2023/03/07 08:35:15;;;;;;;;;;;;;;;10.05;100.00;99591.72;4985641;28;19985;-50
2023/03/07 08:37:41;;;;;;;;;;;;;;;10.05;100.00;99583.69;4991452;28;19922;-50
2023/03/07 08:40:07;;;;;;;;;;;;;;;9.99;100.00;99581.94;4992904;28;19991;-49
2023/03/07 08:42:32;;;;;;;;;;;;;;;9.74;100.00;99585.47;4990994;28;19940;-50
2023/03/07 08:44:58;;;;;;;;;;;;;;;9.41;100.00;99578.56;4984679;28;19918;-49
2023/03/07 08:47:23;;;;;;;;;;;;;;;9.67;100.00;99582.88;4987367;28;19976;-51
2023/03/07 08:49:48;;;;;;;;;;;;;;;9.53;100.00;99578.66;4987253;28;19913;-53
2023/03/07 08:52:14;;;;;;;;;;;;;;;9.92;100.00;99586.50;4983312;28;19956;-51
2023/03/07 08:54:39;;;;;;;;;;;;;;;9.63;100.00;99586.19;4986867;28;19915;-53
2023/03/07 08:57:04;;;;;;;;;;;;;;;9.17;100.00;99575.69;4989788;28;19925;-52
2023/03/07 08:59:30;;;;;;;;;;;;;;;9.41;100.00;99575.91;4982225;28;19994;-48
2023/03/07 09:01:56;;;;;;;;;;;;;;;9.71;100.00;99577.91;4983149;28;19914;-50
2023/03/07 09:04:22;;;;;;;;;;;;;;;9.96;100.00;99574.38;4985773;28;19986;-50
2023/03/07 09:06:47;;;;;;;;;;;;;;;10.30;100.00;99577.44;4988542;28;19918;-52
2023/03/07 09:09:13;;;;;;;;;;;;;;;10.53;100.00;99578.63;4988661;28;19944;-50
2023/03/07 09:11:38;;;;;;;;;;;;;;;10.38;100.00;99584.34;4990497;28;19990;-50
2023/03/07 09:14:04;;;;;;;;;;;;;;;10.45;100.00;99577.91;4983121;28;19918;-49
2023/03/07 09:16:29;;;;;;;;;;;;;;;10.38;100.00;99585.19;4987781;28;23482;-52
2023/03/07 09:18:55;;;;;;;;;;;;;;;9.99;100.00;99579.25;4989148;28;19918;-51
2023/03/07 09:21:20;;;;;;;;;;;;;;;9.71;100.00;99583.25;4993042;28;19951;-53
2023/03/07 09:23:46;;;;;;;;;;;;;;;9.35;100.00;99585.63;4989319;28;19914;-48
2023/03/07 09:26:12;;;;;;;;;;;;;;;9.51;100.00;99578.06;4990763;28;19933;-52
2023/03/07 09:28:37;;;;;;;;;;;;;;;9.50;100.00;99582.63;4988590;28;20031;-52
2023/03/07 09:31:07;;;;;;;;;;;;;;;9.57;100.00;99580.69;4987580;28;19914;-51
2023/03/07 09:33:32;;;;;;;;;;;;;;;9.56;100.00;99581.72;4990152;28;19914;-52
2023/03/07 09:35:58;;;;;;;;;;;;;;;9.10;100.00;99588.25;4987655;28;20025;-52
2023/03/07 09:38:23;;;;;;;;;;;;;;;9.86;100.00;99588.22;4987832;28;19921;-52
2023/03/07 09:40:49;;;;;;;;;;;;;;;9.94;100.00;99592.47;4995529;28;19918;-50
2023/03/07 09:43:14;;;;;;;;;;;;;;;10.16;100.00;99593.66;4989578;28;19914;-50
2023/03/07 09:45:53;;;;;;;;;;;;;;;10.02;100.00;99590.28;4976549;28;19918;-53
2023/03/07 09:48:35;;;;;;;;;;;;;;;10.47;100.00;99585.69;4986391;28;19917;-51
2023/03/07 09:51:12;;;;;;;;;;;;;;;10.49;100.00;99588.94;4983994;28;19918;-54
2023/03/07 09:53:41;;;;;;;;;;;;;;;11.17;100.00;99586.94;4989573;28;19922;-53
2023/03/07 09:56:21;;;;;;;;;;;;;;;10.49;100.00;99583.59;4989770;28;19985;-51
2023/03/07 09:58:50;;;;;;;;;;;;;;;10.50;100.00;99587.09;4993201;28;19914;-50
2023/03/07 10:01:19;;;;;;;;;;;;;;;10.00;100.00;99586.22;4990681;28;19914;-53
2023/03/07 10:03:50;;;;;;;;;;;;;;;9.94;100.00;99584.44;4972640;28;19982;-52
2023/03/07 10:06:24;;;;;;;;;;;;;;;10.21;100.00;99582.28;4994686;28;19926;-50
2023/03/07 10:08:49;;;;;;;;;;;;;;;10.04;100.00;99587.41;4991196;28;19915;-49
2023/03/07 10:11:15;;;;;;;;;;;;;;;10.61;100.00;99583.69;4988320;28;19914;-53
2023/03/07 10:13:46;;;;;;;;;;;;;;;11.10;100.00;99593.47;4989979;28;19990;-52
2023/03/07 10:16:30;;;;;;;;;;;;;;;10.60;100.00;99587.38;4992826;28;19973;-52
2023/03/07 10:19:09;;;;;;;;;;;;;;;10.78;100.00;99594.56;4973503;28;19910;-49
2023/03/07 10:21:50;;;;;;;;;;;;;;;10.51;100.00;99591.41;4985925;28;19941;-48
2023/03/07 10:24:33;;;;;;;;;;;;;;;11.56;100.00;99599.09;4990292;28;19914;-55
2023/03/07 10:27:11;;;;;;;;;;;;;;;11.39;100.00;99599.78;4992810;28;20001;-47
2023/03/07 10:29:40;;;;;;;;;;;;;;;11.09;100.00;99591.84;4989525;28;19914;-50
2023/03/07 10:32:26;;;;;;;;;;;;;;;11.28;100.00;99592.56;4990487;28;19918;-53
2023/03/07 10:35:01;;;;;;;;;;;;;;;10.89;100.00;99593.75;5010499;28;20013;-55
2023/03/07 10:37:49;;;;;;;;;;;;;;;10.51;100.00;99599.44;4988828;28;19952;-52
2023/03/07 10:40:24;;;;;;;;;;;;;;;11.26;100.00;99592.78;5002206;28;19922;-48
2023/03/07 10:42:50;;;;;;;;;;;;;;;11.37;100.00;99593.84;4990764;28;19914;-49
2023/03/07 10:45:16;;;;;;;;;;;;;;;10.91;100.00;99590.88;4991729;28;19925;-50
2023/03/07 10:47:41;;;;;;;;;;;;;;;10.65;100.00;99592.88;4992591;28;19918;-56
2023/03/07 10:50:25;;;;;;;;;;;;;;;11.07;100.00;99594.75;4990881;28;19945;-50
2023/03/07 10:52:54;;;;;;;;;;;;;;;10.68;100.00;99589.75;4987032;28;19914;-50
2023/03/07 10:55:29;;;;;;;;;;;;;;;11.23;100.00;99593.25;4992744;28;19963;-50
2023/03/07 10:58:10;;;;;;;;;;;;;;;10.90;100.00;99590.03;4992453;28;19925;-50
2023/03/07 11:00:36;;;;;;;;;;;;;;;10.81;100.00;99596.75;4987624;28;19940;-51
2023/03/07 11:03:01;;;;;;;;;;;;;;;11.28;100.00;99590.69;4977541;28;19914;-51
2023/03/07 11:05:31;;;;;;;;;;;;;;;11.57;100.00;99588.19;4989711;28;19953;-49
2023/03/07 11:07:58;;;;;;;;;;;;;;;10.59;100.00;99593.75;4994392;28;19989;-53
2023/03/07 11:10:26;;;;;;;;;;;;;;;11.10;100.00;99593.47;4991071;28;19925;-52
2023/03/07 11:12:54;;;;;;;;;;;;;;;11.11;100.00;99601.25;4986509;28;19916;-48
2023/03/07 11:15:23;;;;;;;;;;;;;;;11.20;100.00;99596.41;4987221;28;19914;-49
2023/03/07 11:17:48;;;;;;;;;;;;;;;10.25;100.00;99594.16;4990508;28;19939;-51
2023/03/07 11:20:28;;;;;;;;;;;;;;;10.33;100.00;99591.19;4988136;28;19970;-50
2023/03/07 11:23:22;;;;;;;;;;;;;;;11.14;100.00;99602.66;4990026;28;19921;-49
2023/03/07 11:25:48;;;;;;;;;;;;;;;10.16;100.00;99599.00;4990642;28;19937;-49
2023/03/07 11:28:28;;;;;;;;;;;;;;;10.51;100.00;99586.06;4989623;28;19997;-49
2023/03/07 11:31:08;;;;;;;;;;;;;;;10.81;100.00;99594.09;4991482;28;19914;-49
2023/03/07 11:33:36;;;;;;;;;;;;;;;10.99;100.00;99584.38;4988735;28;19925;-53
2023/03/07 11:36:37;;;;;;;;;;;;;;;11.56;100.00;99589.22;4989551;28;19933;-48
2023/03/07 11:39:12;;;;;;;;;;;;;;;10.68;100.00;99592.41;4923637;29;19942;-49
2023/03/07 11:41:44;;;;;;;;;;;;;;;11.33;100.00;99596.19;4981688;28;19914;-47
2023/03/07 11:44:28;;;;;;;;;;;;;;;11.03;100.00;99589.03;4988387;28;19938;-50
2023/03/07 11:47:00;;;;;;;;;;;;;;;11.22;100.00;99590.81;4988714;28;19918;-49
2023/03/07 11:49:35;;;;;;;;;;;;;;;11.15;100.00;99585.56;4990896;28;19914;-52
2023/03/07 11:52:01;;;;;;;;;;;;;;;12.01;100.00;99592.38;4993601;28;19920;-50
2023/03/07 11:54:40;;;;;;;;;;;;;;;11.61;100.00;99591.19;4991628;28;19917;-52
2023/03/07 11:57:30;;;;;;;;;;;;;;;11.32;100.00;99594.56;4988938;28;19925;-50
2023/03/07 12:00:14;;;;;;;;;;;;;;;11.11;100.00;99587.88;4986081;28;19920;-54
2023/03/07 12:02:40;;;;;;;;;;;;;;;11.00;100.00;99578.78;4988814;28;19945;-49
2023/03/07 12:05:09;;;;;;;;;;;;;;;10.79;100.00;99592.69;4988892;28;19938;-51
2023/03/07 12:07:43;;;;;;;;;;;;;;;9.96;100.00;99580.50;4988604;28;19918;-53
2023/03/07 12:10:08;;;;;;;;;;;;;;;10.46;100.00;99590.22;4985327;28;19946;-54
2023/03/07 12:12:52;;;;;;;;;;;;;;;9.79;100.00;99596.31;4987597;28;19918;-50